sensor_id;sensor_type;location;lat;lon;timestamp;pressure;altitude;pressure_sealevel;temperature;humidity
84022;BME280;74108;48.636;9.492;2024-01-30T00:01:55;99151.47;;;1.58;81.21
84022;BME280;74108;48.636;9.492;2024-01-30T00:04:20;99153.88;;;1.51;81.21
84022;BME280;74108;48.636;9.492;2024-01-30T00:06:46;99150.78;;;1.48;83.17
84022;BME280;74108;48.636;9.492;2024-01-30T00:09:11;99152.94;;;1.60;82.18
84022;BME280;74108;48.636;9.492;2024-01-30T00:11:37;99141.84;;;1.68;82.51
84022;BME280;74108;48.636;9.492;2024-01-30T00:14:03;99159.28;;;1.66;82.84
84022;BME280;74108;48.636;9.492;2024-01-30T00:16:29;99161.22;;;1.72;82.00
84022;BME280;74108;48.636;9.492;2024-01-30T00:18:54;99152.66;;;1.71;82.81
84022;BME280;74108;48.636;9.492;2024-01-30T00:21:20;99158.94;;;1.69;82.98
84022;BME280;74108;48.636;9.492;2024-01-30T00:23:46;99142.78;;;1.59;82.11
84022;BME280;74108;48.636;9.492;2024-01-30T00:26:11;99161.09;;;1.48;81.62
84022;BME280;74108;48.636;9.492;2024-01-30T00:28:38;99146.78;;;1.53;81.79
84022;BME280;74108;48.636;9.492;2024-01-30T00:31:03;99160.31;;;1.47;81.59
84022;BME280;74108;48.636;9.492;2024-01-30T00:33:29;99152.13;;;1.52;81.62
84022;BME280;74108;48.636;9.492;2024-01-30T00:35:55;99155.63;;;1.42;81.23
84022;BME280;74108;48.636;9.492;2024-01-30T00:38:20;99154.63;;;1.35;81.17
84022;BME280;74108;48.636;9.492;2024-01-30T00:40:45;99152.81;;;1.28;81.08
84022;BME280;74108;48.636;9.492;2024-01-30T00:43:11;99156.47;;;1.17;81.98
84022;BME280;74108;48.636;9.492;2024-01-30T00:45:36;99165.44;;;1.13;81.61
84022;BME280;74108;48.636;9.492;2024-01-30T00:48:02;99157.88;;;1.12;82.46
84022;BME280;74108;48.636;9.492;2024-01-30T00:50:27;99159.53;;;1.21;82.78
84022;BME280;74108;48.636;9.492;2024-01-30T00:52:52;99160.03;;;1.24;82.38
84022;BME280;74108;48.636;9.492;2024-01-30T00:55:19;99161.28;;;1.12;82.12
84022;BME280;74108;48.636;9.492;2024-01-30T00:57:44;99162.69;;;1.07;82.15
84022;BME280;74108;48.636;9.492;2024-01-30T01:00:10;99168.94;;;1.04;82.54
84022;BME280;74108;48.636;9.492;2024-01-30T01:02:37;99172.78;;;1.00;81.98
84022;BME280;74108;48.636;9.492;2024-01-30T01:05:04;99171.69;;;1.03;81.58
84022;BME280;74108;48.636;9.492;2024-01-30T01:07:30;99169.38;;;0.92;81.80
84022;BME280;74108;48.636;9.492;2024-01-30T01:09:55;99161.97;;;0.97;82.98
84022;BME280;74108;48.636;9.492;2024-01-30T01:12:20;99172.72;;;0.92;82.08
84022;BME280;74108;48.636;9.492;2024-01-30T01:14:46;99164.03;;;0.93;82.68
84022;BME280;74108;48.636;9.492;2024-01-30T01:17:11;99160.06;;;0.99;82.10
84022;BME280;74108;48.636;9.492;2024-01-30T01:19:37;99160.84;;;0.99;83.70
84022;BME280;74108;48.636;9.492;2024-01-30T01:22:02;99160.44;;;1.12;82.79
84022;BME280;74108;48.636;9.492;2024-01-30T01:24:30;99167.91;;;1.15;82.67
84022;BME280;74108;48.636;9.492;2024-01-30T01:26:56;99165.88;;;1.26;81.94
84022;BME280;74108;48.636;9.492;2024-01-30T01:29:22;99157.56;;;1.15;82.63
84022;BME280;74108;48.636;9.492;2024-01-30T01:31:54;99165.25;;;1.07;83.49
84022;BME280;74108;48.636;9.492;2024-01-30T01:34:20;99172.06;;;1.08;83.56
84022;BME280;74108;48.636;9.492;2024-01-30T01:36:45;99164.56;;;0.97;82.91
84022;BME280;74108;48.636;9.492;2024-01-30T01:39:10;99172.19;;;0.81;83.69
84022;BME280;74108;48.636;9.492;2024-01-30T01:41:36;99161.00;;;0.98;83.32
84022;BME280;74108;48.636;9.492;2024-01-30T01:44:01;99167.53;;;1.10;82.25
84022;BME280;74108;48.636;9.492;2024-01-30T01:46:27;99164.97;;;1.10;82.28
84022;BME280;74108;48.636;9.492;2024-01-30T01:48:55;99163.59;;;0.98;82.45
84022;BME280;74108;48.636;9.492;2024-01-30T01:51:22;99162.63;;;0.99;83.11
84022;BME280;74108;48.636;9.492;2024-01-30T01:53:50;99162.28;;;0.94;82.96
84022;BME280;74108;48.636;9.492;2024-01-30T01:56:16;99154.94;;;0.81;83.85
84022;BME280;74108;48.636;9.492;2024-01-30T01:58:42;99154.84;;;0.91;84.57
84022;BME280;74108;48.636;9.492;2024-01-30T02:01:09;99154.75;;;1.00;84.31
84022;BME280;74108;48.636;9.492;2024-01-30T02:03:35;99151.75;;;1.13;83.94
84022;BME280;74108;48.636;9.492;2024-01-30T02:06:01;99159.25;;;1.24;83.38
84022;BME280;74108;48.636;9.492;2024-01-30T02:08:27;99155.94;;;1.39;82.13
84022;BME280;74108;48.636;9.492;2024-01-30T02:10:53;99158.03;;;1.44;82.02
84022;BME280;74108;48.636;9.492;2024-01-30T02:13:18;99151.97;;;1.27;81.65
84022;BME280;74108;48.636;9.492;2024-01-30T02:15:49;99162.09;;;1.13;82.19
84022;BME280;74108;48.636;9.492;2024-01-30T02:18:14;99166.47;;;0.95;83.30
84022;BME280;74108;48.636;9.492;2024-01-30T02:20:39;99158.72;;;0.95;83.65
84022;BME280;74108;48.636;9.492;2024-01-30T02:23:06;99152.72;;;1.12;83.16
84022;BME280;74108;48.636;9.492;2024-01-30T02:25:42;99165.97;;;1.17;83.79
84022;BME280;74108;48.636;9.492;2024-01-30T02:28:10;99158.44;;;1.23;83.13
84022;BME280;74108;48.636;9.492;2024-01-30T02:30:37;99161.94;;;1.22;83.11
84022;BME280;74108;48.636;9.492;2024-01-30T02:36:10;99155.66;;;1.17;82.67
84022;BME280;74108;48.636;9.492;2024-01-30T02:38:35;99158.38;;;1.15;82.59
84022;BME280;74108;48.636;9.492;2024-01-30T02:41:00;99152.72;;;1.12;82.51
84022;BME280;74108;48.636;9.492;2024-01-30T02:43:26;99157.34;;;1.08;83.10
84022;BME280;74108;48.636;9.492;2024-01-30T02:45:51;99152.66;;;1.04;83.33
84022;BME280;74108;48.636;9.492;2024-01-30T02:48:16;99162.09;;;1.13;83.30
84022;BME280;74108;48.636;9.492;2024-01-30T02:50:42;99151.25;;;1.09;82.49
84022;BME280;74108;48.636;9.492;2024-01-30T02:53:07;99149.66;;;1.16;82.80
84022;BME280;74108;48.636;9.492;2024-01-30T02:55:33;99154.47;;;1.11;82.79
84022;BME280;74108;48.636;9.492;2024-01-30T02:57:58;99153.34;;;1.06;82.43
84022;BME280;74108;48.636;9.492;2024-01-30T03:00:24;99149.13;;;1.05;82.41
84022;BME280;74108;48.636;9.492;2024-01-30T03:02:49;99150.75;;;1.06;82.55
84022;BME280;74108;48.636;9.492;2024-01-30T03:05:15;99148.00;;;1.07;82.95
84022;BME280;74108;48.636;9.492;2024-01-30T03:07:40;99151.88;;;1.03;82.57
84022;BME280;74108;48.636;9.492;2024-01-30T03:10:06;99147.00;;;1.00;82.16
84022;BME280;74108;48.636;9.492;2024-01-30T03:12:32;99148.84;;;0.90;82.72
84022;BME280;74108;48.636;9.492;2024-01-30T03:14:57;99155.13;;;0.88;82.95
84022;BME280;74108;48.636;9.492;2024-01-30T03:17:22;99145.94;;;0.85;81.92
84022;BME280;74108;48.636;9.492;2024-01-30T03:19:49;99149.19;;;0.69;82.31
84022;BME280;74108;48.636;9.492;2024-01-30T03:22:14;99154.81;;;0.65;82.00
84022;BME280;74108;48.636;9.492;2024-01-30T03:24:40;99157.69;;;0.62;83.40
84022;BME280;74108;48.636;9.492;2024-01-30T03:27:05;99153.13;;;0.56;83.79
84022;BME280;74108;48.636;9.492;2024-01-30T03:29:30;99155.41;;;0.59;84.05
84022;BME280;74108;48.636;9.492;2024-01-30T03:31:56;99150.50;;;0.48;84.05
84022;BME280;74108;48.636;9.492;2024-01-30T03:34:21;99146.88;;;0.58;84.13
84022;BME280;74108;48.636;9.492;2024-01-30T03:36:46;99148.63;;;0.58;82.13
84022;BME280;74108;48.636;9.492;2024-01-30T03:39:12;99150.47;;;0.65;82.10
84022;BME280;74108;48.636;9.492;2024-01-30T03:41:37;99152.38;;;0.63;82.62
84022;BME280;74108;48.636;9.492;2024-01-30T03:44:03;99163.53;;;0.64;81.61
84022;BME280;74108;48.636;9.492;2024-01-30T03:46:28;99159.72;;;0.50;81.11
84022;BME280;74108;48.636;9.492;2024-01-30T03:48:53;99163.44;;;0.56;81.42
84022;BME280;74108;48.636;9.492;2024-01-30T03:51:19;99158.53;;;0.45;81.65
84022;BME280;74108;48.636;9.492;2024-01-30T03:53:44;99164.50;;;0.45;82.20
84022;BME280;74108;48.636;9.492;2024-01-30T03:56:13;99161.03;;;0.37;82.76
84022;BME280;74108;48.636;9.492;2024-01-30T03:58:39;99156.84;;;0.18;82.55
84022;BME280;74108;48.636;9.492;2024-01-30T04:01:05;99169.28;;;0.23;83.21
84022;BME280;74108;48.636;9.492;2024-01-30T04:03:30;99171.63;;;0.16;83.18
84022;BME280;74108;48.636;9.492;2024-01-30T04:05:55;99165.41;;;-0.09;83.94
84022;BME280;74108;48.636;9.492;2024-01-30T04:08:21;99167.94;;;0.01;84.57
84022;BME280;74108;48.636;9.492;2024-01-30T04:10:47;99171.69;;;0.07;83.99
84022;BME280;74108;48.636;9.492;2024-01-30T04:13:12;99158.44;;;0.02;84.20
84022;BME280;74108;48.636;9.492;2024-01-30T04:15:38;99158.16;;;0.05;84.34
84022;BME280;74108;48.636;9.492;2024-01-30T04:18:04;99163.59;;;0.02;84.78
84022;BME280;74108;48.636;9.492;2024-01-30T04:20:30;99169.56;;;0.02;83.96
84022;BME280;74108;48.636;9.492;2024-01-30T04:22:55;99176.47;;;0.02;84.12
84022;BME280;74108;48.636;9.492;2024-01-30T04:25:21;99172.25;;;0.00;84.96
84022;BME280;74108;48.636;9.492;2024-01-30T04:27:46;99168.22;;;-0.02;85.31
84022;BME280;74108;48.636;9.492;2024-01-30T04:30:12;99172.41;;;-0.19;83.98
84022;BME280;74108;48.636;9.492;2024-01-30T04:32:37;99155.25;;;-0.10;85.11
84022;BME280;74108;48.636;9.492;2024-01-30T04:35:03;99163.56;;;-0.16;85.14
84022;BME280;74108;48.636;9.492;2024-01-30T04:37:29;99164.78;;;-0.20;86.73
84022;BME280;74108;48.636;9.492;2024-01-30T04:39:54;99163.59;;;0.02;87.38
84022;BME280;74108;48.636;9.492;2024-01-30T04:42:19;99163.31;;;0.05;86.00
84022;BME280;74108;48.636;9.492;2024-01-30T04:44:45;99165.13;;;0.12;86.33
84022;BME280;74108;48.636;9.492;2024-01-30T04:47:10;99162.50;;;0.04;86.03
84022;BME280;74108;48.636;9.492;2024-01-30T04:49:38;99172.59;;;0.15;84.82
84022;BME280;74108;48.636;9.492;2024-01-30T04:52:05;99164.63;;;0.09;84.86
84022;BME280;74108;48.636;9.492;2024-01-30T04:54:31;99170.66;;;0.17;84.34
84022;BME280;74108;48.636;9.492;2024-01-30T04:56:56;99167.59;;;0.14;85.13
84022;BME280;74108;48.636;9.492;2024-01-30T04:59:21;99169.84;;;0.17;84.99
84022;BME280;74108;48.636;9.492;2024-01-30T05:01:47;99165.22;;;0.20;85.43
84022;BME280;74108;48.636;9.492;2024-01-30T05:04:12;99166.19;;;0.19;85.81
84022;BME280;74108;48.636;9.492;2024-01-30T05:06:38;99162.06;;;0.26;86.10
84022;BME280;74108;48.636;9.492;2024-01-30T05:09:03;99166.19;;;0.37;85.62
84022;BME280;74108;48.636;9.492;2024-01-30T05:11:37;99159.56;;;0.34;85.43
84022;BME280;74108;48.636;9.492;2024-01-30T05:14:02;99161.16;;;0.35;85.05
84022;BME280;74108;48.636;9.492;2024-01-30T05:16:28;99157.19;;;0.23;83.96
84022;BME280;74108;48.636;9.492;2024-01-30T05:18:53;99152.78;;;0.16;83.00
84022;BME280;74108;48.636;9.492;2024-01-30T05:21:19;99148.19;;;0.10;83.99
84022;BME280;74108;48.636;9.492;2024-01-30T05:23:44;99165.44;;;0.09;83.75
84022;BME280;74108;48.636;9.492;2024-01-30T05:26:09;99163.81;;;0.08;83.69
84022;BME280;74108;48.636;9.492;2024-01-30T05:28:35;99168.38;;;-0.04;83.58
84022;BME280;74108;48.636;9.492;2024-01-30T05:31:00;99171.09;;;-0.05;83.83
84022;BME280;74108;48.636;9.492;2024-01-30T05:33:25;99159.16;;;-0.06;83.91
84022;BME280;74108;48.636;9.492;2024-01-30T05:35:51;99174.06;;;0.00;85.56
84022;BME280;74108;48.636;9.492;2024-01-30T05:38:19;99174.63;;;-0.06;85.63
84022;BME280;74108;48.636;9.492;2024-01-30T05:40:45;99177.03;;;-0.05;85.97
84022;BME280;74108;48.636;9.492;2024-01-30T05:43:11;99175.19;;;-0.12;84.02
84022;BME280;74108;48.636;9.492;2024-01-30T05:45:36;99169.22;;;-0.13;84.46
84022;BME280;74108;48.636;9.492;2024-01-30T05:48:01;99180.84;;;-0.09;85.23
84022;BME280;74108;48.636;9.492;2024-01-30T05:50:27;99182.56;;;0.00;85.81
84022;BME280;74108;48.636;9.492;2024-01-30T05:52:53;99180.53;;;0.04;85.20
84022;BME280;74108;48.636;9.492;2024-01-30T05:55:18;99176.13;;;-0.13;82.37
84022;BME280;74108;48.636;9.492;2024-01-30T05:57:43;99180.56;;;-0.23;83.62
84022;BME280;74108;48.636;9.492;2024-01-30T06:00:09;99176.78;;;-0.29;83.75
84022;BME280;74108;48.636;9.492;2024-01-30T06:02:35;99180.97;;;-0.28;84.87
84022;BME280;74108;48.636;9.492;2024-01-30T06:05:00;99186.19;;;-0.37;86.38
84022;BME280;74108;48.636;9.492;2024-01-30T06:07:26;99188.28;;;-0.23;86.01
84022;BME280;74108;48.636;9.492;2024-01-30T06:09:51;99186.59;;;-0.15;85.10
84022;BME280;74108;48.636;9.492;2024-01-30T06:12:16;99185.94;;;-0.44;83.42
84022;BME280;74108;48.636;9.492;2024-01-30T06:14:42;99189.34;;;-0.53;85.19
84022;BME280;74108;48.636;9.492;2024-01-30T06:17:08;99182.47;;;-0.62;86.88
84022;BME280;74108;48.636;9.492;2024-01-30T06:19:33;99189.75;;;-0.57;87.48
84022;BME280;74108;48.636;9.492;2024-01-30T06:21:59;99185.13;;;-0.44;87.39
84022;BME280;74108;48.636;9.492;2024-01-30T06:24:24;99189.50;;;-0.27;87.10
84022;BME280;74108;48.636;9.492;2024-01-30T06:26:49;99184.22;;;-0.26;85.77
84022;BME280;74108;48.636;9.492;2024-01-30T06:29:15;99187.59;;;-0.25;84.36
84022;BME280;74108;48.636;9.492;2024-01-30T06:31:41;99184.50;;;-0.29;83.07
84022;BME280;74108;48.636;9.492;2024-01-30T06:34:07;99185.31;;;-0.28;83.95
84022;BME280;74108;48.636;9.492;2024-01-30T06:36:33;99192.72;;;-0.25;84.18
84022;BME280;74108;48.636;9.492;2024-01-30T06:38:58;99188.41;;;-0.25;84.64
84022;BME280;74108;48.636;9.492;2024-01-30T06:41:23;99189.22;;;-0.24;85.34
84022;BME280;74108;48.636;9.492;2024-01-30T06:43:50;99181.78;;;-0.27;85.08
84022;BME280;74108;48.636;9.492;2024-01-30T06:46:15;99189.91;;;-0.05;85.31
84022;BME280;74108;48.636;9.492;2024-01-30T06:48:40;99183.75;;;0.06;85.25
84022;BME280;74108;48.636;9.492;2024-01-30T06:51:06;99186.72;;;0.11;83.90
84022;BME280;74108;48.636;9.492;2024-01-30T06:53:31;99187.28;;;0.05;82.13
84022;BME280;74108;48.636;9.492;2024-01-30T06:55:57;99186.94;;;0.00;81.99
84022;BME280;74108;48.636;9.492;2024-01-30T06:58:22;99185.53;;;0.23;82.19
84022;BME280;74108;48.636;9.492;2024-01-30T07:00:48;99189.47;;;0.27;82.57
84022;BME280;74108;48.636;9.492;2024-01-30T07:03:13;99193.84;;;0.17;83.10
84022;BME280;74108;48.636;9.492;2024-01-30T07:05:38;99193.03;;;0.17;83.51
84022;BME280;74108;48.636;9.492;2024-01-30T07:08:04;99203.78;;;0.12;83.12
84022;BME280;74108;48.636;9.492;2024-01-30T07:10:30;99197.34;;;-0.02;82.59
84022;BME280;74108;48.636;9.492;2024-01-30T07:12:56;99199.66;;;0.02;83.45
84022;BME280;74108;48.636;9.492;2024-01-30T07:15:22;99199.72;;;0.10;83.63
84022;BME280;74108;48.636;9.492;2024-01-30T07:17:47;99195.00;;;0.05;83.59
84022;BME280;74108;48.636;9.492;2024-01-30T07:20:13;99202.03;;;0.13;83.41
84022;BME280;74108;48.636;9.492;2024-01-30T07:22:40;99199.88;;;0.08;83.90
84022;BME280;74108;48.636;9.492;2024-01-30T07:25:06;99199.59;;;0.11;84.12
84022;BME280;74108;48.636;9.492;2024-01-30T07:27:31;99199.88;;;0.26;84.40
84022;BME280;74108;48.636;9.492;2024-01-30T07:29:56;99211.47;;;0.57;83.74
84022;BME280;74108;48.636;9.492;2024-01-30T07:32:22;99207.91;;;0.58;83.36
84022;BME280;74108;48.636;9.492;2024-01-30T07:34:47;99210.75;;;0.64;83.25
84022;BME280;74108;48.636;9.492;2024-01-30T07:37:13;99218.63;;;0.81;83.46
84022;BME280;74108;48.636;9.492;2024-01-30T07:39:41;99212.31;;;1.01;82.68
84022;BME280;74108;48.636;9.492;2024-01-30T07:42:06;99216.41;;;1.11;82.09
84022;BME280;74108;48.636;9.492;2024-01-30T07:44:31;99213.38;;;1.16;82.35
84022;BME280;74108;48.636;9.492;2024-01-30T07:46:57;99221.47;;;1.21;82.25
84022;BME280;74108;48.636;9.492;2024-01-30T07:49:22;99223.66;;;1.33;82.35
84022;BME280;74108;48.636;9.492;2024-01-30T07:51:48;99214.84;;;1.44;81.49
84022;BME280;74108;48.636;9.492;2024-01-30T07:54:16;99208.28;;;1.50;81.61
84022;BME280;74108;48.636;9.492;2024-01-30T07:56:42;99213.97;;;1.61;81.38
84022;BME280;74108;48.636;9.492;2024-01-30T07:59:11;99210.94;;;1.74;81.58
84022;BME280;74108;48.636;9.492;2024-01-30T08:01:37;99214.41;;;1.90;80.74
84022;BME280;74108;48.636;9.492;2024-01-30T08:04:03;99212.53;;;2.17;79.91
84022;BME280;74108;48.636;9.492;2024-01-30T08:06:28;99209.03;;;2.34;79.41
84022;BME280;74108;48.636;9.492;2024-01-30T08:08:54;99208.88;;;2.51;78.78
84022;BME280;74108;48.636;9.492;2024-01-30T08:11:20;99207.94;;;2.52;79.90
84022;BME280;74108;48.636;9.492;2024-01-30T08:13:51;99217.81;;;2.73;79.89
84022;BME280;74108;48.636;9.492;2024-01-30T08:16:18;99209.75;;;2.76;79.49
84022;BME280;74108;48.636;9.492;2024-01-30T08:18:43;99209.56;;;2.85;78.67
84022;BME280;74108;48.636;9.492;2024-01-30T08:21:09;99213.78;;;2.95;79.69
84022;BME280;74108;48.636;9.492;2024-01-30T08:23:34;99205.00;;;3.12;78.55
84022;BME280;74108;48.636;9.492;2024-01-30T08:26:00;99205.47;;;3.23;77.65
84022;BME280;74108;48.636;9.492;2024-01-30T08:28:25;99206.44;;;3.30;76.87
84022;BME280;74108;48.636;9.492;2024-01-30T08:30:51;99203.31;;;3.51;77.23
84022;BME280;74108;48.636;9.492;2024-01-30T08:33:17;99204.91;;;3.60;77.61
84022;BME280;74108;48.636;9.492;2024-01-30T08:35:42;99201.63;;;3.74;77.17
84022;BME280;74108;48.636;9.492;2024-01-30T08:38:07;99203.94;;;4.00;75.74
84022;BME280;74108;48.636;9.492;2024-01-30T08:40:33;99210.19;;;4.13;76.30
84022;BME280;74108;48.636;9.492;2024-01-30T08:42:58;99200.25;;;4.25;76.48
84022;BME280;74108;48.636;9.492;2024-01-30T08:45:24;99203.06;;;4.38;74.21
84022;BME280;74108;48.636;9.492;2024-01-30T08:47:49;99200.22;;;4.56;73.66
84022;BME280;74108;48.636;9.492;2024-01-30T08:50:15;99203.09;;;4.83;73.63
84022;BME280;74108;48.636;9.492;2024-01-30T08:52:40;99196.81;;;5.15;71.50
84022;BME280;74108;48.636;9.492;2024-01-30T08:55:05;99204.59;;;5.30;70.33
84022;BME280;74108;48.636;9.492;2024-01-30T08:57:31;99201.75;;;5.54;69.68
84022;BME280;74108;48.636;9.492;2024-01-30T08:59:56;99194.31;;;5.80;69.01
84022;BME280;74108;48.636;9.492;2024-01-30T09:02:22;99201.84;;;6.04;68.14
84022;BME280;74108;48.636;9.492;2024-01-30T09:04:47;99196.16;;;6.51;66.67
84022;BME280;74108;48.636;9.492;2024-01-30T09:07:12;99202.03;;;6.81;65.29
84022;BME280;74108;48.636;9.492;2024-01-30T09:09:39;99198.22;;;7.04;65.17
84022;BME280;74108;48.636;9.492;2024-01-30T09:12:06;99200.06;;;7.11;64.17
84022;BME280;74108;48.636;9.492;2024-01-30T09:14:34;99199.97;;;6.97;64.66
84022;BME280;74108;48.636;9.492;2024-01-30T09:17:00;99199.88;;;7.12;66.13
84022;BME280;74108;48.636;9.492;2024-01-30T09:19:25;99202.31;;;7.14;65.85
84022;BME280;74108;48.636;9.492;2024-01-30T09:21:51;99212.53;;;7.15;65.33
84022;BME280;74108;48.636;9.492;2024-01-30T09:24:17;99205.25;;;7.32;65.42
84022;BME280;74108;48.636;9.492;2024-01-30T09:26:42;99193.81;;;7.05;66.65
84022;BME280;74108;48.636;9.492;2024-01-30T09:29:07;99192.34;;;7.24;64.25
84022;BME280;74108;48.636;9.492;2024-01-30T09:31:33;99190.00;;;7.35;65.17
84022;BME280;74108;48.636;9.492;2024-01-30T09:33:58;99194.53;;;7.48;64.83
84022;BME280;74108;48.636;9.492;2024-01-30T09:36:24;99198.00;;;7.61;65.43
84022;BME280;74108;48.636;9.492;2024-01-30T09:38:49;99201.28;;;7.76;62.86
84022;BME280;74108;48.636;9.492;2024-01-30T09:41:15;99202.94;;;7.84;63.89
84022;BME280;74108;48.636;9.492;2024-01-30T09:43:41;99210.06;;;8.03;62.12
84022;BME280;74108;48.636;9.492;2024-01-30T09:46:14;99208.66;;;8.07;62.20
84022;BME280;74108;48.636;9.492;2024-01-30T09:48:41;99195.56;;;7.94;61.76
84022;BME280;74108;48.636;9.492;2024-01-30T09:51:09;99201.59;;;8.01;61.88
84022;BME280;74108;48.636;9.492;2024-01-30T09:53:36;99197.09;;;8.29;61.28
84022;BME280;74108;48.636;9.492;2024-01-30T09:56:02;99200.00;;;8.54;60.90
84022;BME280;74108;48.636;9.492;2024-01-30T09:58:28;99202.03;;;8.72;60.84
84022;BME280;74108;48.636;9.492;2024-01-30T10:00:53;99198.59;;;8.71;61.90
84022;BME280;74108;48.636;9.492;2024-01-30T10:03:19;99197.41;;;8.74;61.54
84022;BME280;74108;48.636;9.492;2024-01-30T10:05:50;99211.50;;;8.99;62.58
84022;BME280;74108;48.636;9.492;2024-01-30T10:08:18;99196.19;;;8.96;60.49
84022;BME280;74108;48.636;9.492;2024-01-30T10:10:48;99204.84;;;9.03;60.80
84022;BME280;74108;48.636;9.492;2024-01-30T10:13:15;99199.03;;;8.94;59.94
84022;BME280;74108;48.636;9.492;2024-01-30T10:15:41;99202.44;;;9.01;59.77
84022;BME280;74108;48.636;9.492;2024-01-30T10:18:06;99207.47;;;9.16;59.48
84022;BME280;74108;48.636;9.492;2024-01-30T10:20:34;99197.63;;;9.18;58.80
84022;BME280;74108;48.636;9.492;2024-01-30T10:23:00;99196.81;;;9.11;60.23
84022;BME280;74108;48.636;9.492;2024-01-30T10:25:26;99196.81;;;9.11;60.69
84022;BME280;74108;48.636;9.492;2024-01-30T10:27:55;99197.81;;;9.16;59.94
84022;BME280;74108;48.636;9.492;2024-01-30T10:30:24;99197.22;;;9.01;60.27
84022;BME280;74108;48.636;9.492;2024-01-30T10:32:50;99195.59;;;9.00;60.52
84022;BME280;74108;48.636;9.492;2024-01-30T10:35:16;99198.41;;;9.05;60.18
84022;BME280;74108;48.636;9.492;2024-01-30T10:37:43;99200.03;;;9.19;59.52
84022;BME280;74108;48.636;9.492;2024-01-30T10:40:13;99197.59;;;9.38;59.49
84022;BME280;74108;48.636;9.492;2024-01-30T10:42:42;99195.97;;;9.30;59.63
84022;BME280;74108;48.636;9.492;2024-01-30T10:45:10;99199.41;;;9.44;59.77
84022;BME280;74108;48.636;9.492;2024-01-30T10:47:59;99196.75;;;9.57;59.49
84022;BME280;74108;48.636;9.492;2024-01-30T10:50:25;99194.19;;;9.44;59.68
84022;BME280;74108;48.636;9.492;2024-01-30T10:52:52;99188.31;;;9.55;59.09
84022;BME280;74108;48.636;9.492;2024-01-30T10:55:18;99191.28;;;9.71;58.14
84022;BME280;74108;48.636;9.492;2024-01-30T10:57:44;99194.06;;;9.83;58.03
84022;BME280;74108;48.636;9.492;2024-01-30T11:00:14;99189.84;;;9.82;57.54
84022;BME280;74108;48.636;9.492;2024-01-30T11:02:45;99190.63;;;9.89;57.75
84022;BME280;74108;48.636;9.492;2024-01-30T11:05:11;99184.34;;;9.90;58.02
84022;BME280;74108;48.636;9.492;2024-01-30T11:07:39;99185.56;;;9.94;58.14
84022;BME280;74108;48.636;9.492;2024-01-30T11:10:05;99176.47;;;10.03;57.94
84022;BME280;74108;48.636;9.492;2024-01-30T11:12:37;99177.28;;;9.97;58.41
84022;BME280;74108;48.636;9.492;2024-01-30T11:15:06;99184.38;;;9.83;58.92
84022;BME280;74108;48.636;9.492;2024-01-30T11:20:25;99170.63;;;9.95;59.41
84022;BME280;74108;48.636;9.492;2024-01-30T11:22:52;99179.81;;;10.23;56.05
84022;BME280;74108;48.636;9.492;2024-01-30T11:25:19;99171.91;;;10.30;56.08
84022;BME280;74108;48.636;9.492;2024-01-30T11:27:46;99162.63;;;10.34;56.51
84022;BME280;74108;48.636;9.492;2024-01-30T11:30:25;99160.13;;;10.45;55.07
84022;BME280;74108;48.636;9.492;2024-01-30T11:33:02;99163.97;;;10.43;55.92
84022;BME280;74108;48.636;9.492;2024-01-30T11:35:33;99152.91;;;10.41;55.26
84022;BME280;74108;48.636;9.492;2024-01-30T11:37:59;99154.78;;;10.65;53.17
84022;BME280;74108;48.636;9.492;2024-01-30T11:40:27;99150.28;;;10.72;52.86
84022;BME280;74108;48.636;9.492;2024-01-30T11:42:55;99154.28;;;10.75;52.93
84022;BME280;74108;48.636;9.492;2024-01-30T11:45:21;99154.94;;;10.95;52.37
84022;BME280;74108;48.636;9.492;2024-01-30T11:47:47;99153.38;;;11.12;52.48
84022;BME280;74108;48.636;9.492;2024-01-30T11:50:12;99141.38;;;11.22;52.21
84022;BME280;74108;48.636;9.492;2024-01-30T11:52:39;99143.00;;;11.42;49.87
84022;BME280;74108;48.636;9.492;2024-01-30T11:55:05;99144.88;;;11.35;51.32
84022;BME280;74108;48.636;9.492;2024-01-30T11:57:30;99142.03;;;11.36;52.09
84022;BME280;74108;48.636;9.492;2024-01-30T11:59:55;99147.44;;;11.41;51.52
84022;BME280;74108;48.636;9.492;2024-01-30T12:02:21;99135.41;;;11.52;51.07
84022;BME280;74108;48.636;9.492;2024-01-30T12:04:46;99131.59;;;11.66;50.54
84022;BME280;74108;48.636;9.492;2024-01-30T12:07:12;99134.66;;;11.26;51.81
84022;BME280;74108;48.636;9.492;2024-01-30T12:09:41;99136.28;;;11.64;52.33
84022;BME280;74108;48.636;9.492;2024-01-30T12:12:08;99136.84;;;11.66;51.72
84022;BME280;74108;48.636;9.492;2024-01-30T12:14:38;99131.78;;;11.71;50.95
84022;BME280;74108;48.636;9.492;2024-01-30T12:17:04;99128.91;;;11.90;50.47
84022;BME280;74108;48.636;9.492;2024-01-30T12:19:30;99124.69;;;11.89;49.85
84022;BME280;74108;48.636;9.492;2024-01-30T12:21:59;99118.72;;;11.82;49.72
84022;BME280;74108;48.636;9.492;2024-01-30T12:24:25;99111.94;;;12.05;49.96
84022;BME280;74108;48.636;9.492;2024-01-30T12:26:51;99113.22;;;12.14;49.73
84022;BME280;74108;48.636;9.492;2024-01-30T12:29:19;99111.63;;;12.42;48.77
84022;BME280;74108;48.636;9.492;2024-01-30T12:31:45;99103.44;;;12.21;49.79
84022;BME280;74108;48.636;9.492;2024-01-30T12:34:13;99107.81;;;12.27;49.35
84022;BME280;74108;48.636;9.492;2024-01-30T12:36:41;99102.91;;;12.30;49.82
84022;BME280;74108;48.636;9.492;2024-01-30T12:39:12;99103.28;;;12.45;48.97
84022;BME280;74108;48.636;9.492;2024-01-30T12:41:39;99094.09;;;12.36;50.10
84022;BME280;74108;48.636;9.492;2024-01-30T12:44:05;99096.84;;;12.41;49.46
84022;BME280;74108;48.636;9.492;2024-01-30T12:46:30;99098.34;;;12.37;48.93
84022;BME280;74108;48.636;9.492;2024-01-30T12:48:56;99098.22;;;12.44;49.16
84022;BME280;74108;48.636;9.492;2024-01-30T12:51:21;99091.41;;;12.54;49.48
84022;BME280;74108;48.636;9.492;2024-01-30T12:53:47;99095.41;;;12.68;51.01
84022;BME280;74108;48.636;9.492;2024-01-30T12:56:13;99090.75;;;12.71;49.75
84022;BME280;74108;48.636;9.492;2024-01-30T12:58:40;99091.31;;;12.73;50.24
84022;BME280;74108;48.636;9.492;2024-01-30T13:01:07;99089.81;;;12.77;49.72
84022;BME280;74108;48.636;9.492;2024-01-30T13:03:33;99089.81;;;12.88;51.11
84022;BME280;74108;48.636;9.492;2024-01-30T13:05:58;99093.72;;;12.97;50.13
84022;BME280;74108;48.636;9.492;2024-01-30T13:08:24;99087.44;;;13.21;49.48